Time;durP1;ratioP1;P1;durP2;ratioP2;P2;SDS_P1;SDS_P2;PMS_P1;PMS_P2;Temp;Humidity;BMP_temperature;BMP_pressure;BME280_temperature;BME280_humidity;BME280_pressure;Samples;Min_cycle;Max_cycle;Signal;HPM_P1;HPM_P2
2022/01/03 00:01:44;;;;;;;13.33;2.17;;;10.70;99.90;;;;;;4958005;28;20200;-78
2022/01/03 00:04:13;;;;;;;12.57;2.13;;;10.70;99.90;;;;;;4954179;28;20232;-79
2022/01/03 00:06:40;;;;;;;10.73;2.73;;;10.80;99.90;;;;;;4958922;28;20255;-79
2022/01/03 00:09:08;;;;;;;18.00;2.40;;;10.70;99.90;;;;;;4939493;28;20287;-78
2022/01/03 00:11:35;;;;;;;10.57;2.23;;;10.80;99.90;;;;;;4960366;28;20321;-79
2022/01/03 00:14:03;;;;;;;10.30;2.50;;;10.70;99.90;;;;;;4955259;28;20236;-80
2022/01/03 00:16:31;;;;;;;10.20;2.17;;;10.80;99.90;;;;;;4953616;28;20238;-80
2022/01/03 00:18:57;;;;;;;16.17;3.10;;;10.80;99.90;;;;;;4953512;28;20247;-79
2022/01/03 00:21:34;;;;;;;9.77;2.20;;;10.80;99.90;;;;;;4958625;28;20640;-79
2022/01/03 00:24:09;;;;;;;12.73;2.60;;;10.80;99.90;;;;;;4956829;28;20327;-81
2022/01/03 00:26:37;;;;;;;11.13;2.40;;;10.80;99.90;;;;;;4956278;28;20831;-79
2022/01/03 00:29:14;;;;;;;14.80;2.70;;;10.80;99.90;;;;;;4971500;28;20216;-80
2022/01/03 00:31:42;;;;;;;14.10;2.30;;;10.80;99.90;;;;;;4956415;28;20608;-80
2022/01/03 00:34:13;;;;;;;14.23;3.33;;;10.80;99.90;;;;;;4959596;29;20208;-79
2022/01/03 00:36:40;;;;;;;13.80;3.07;;;10.70;99.90;;;;;;4967636;28;20205;-79
2022/01/03 00:39:08;;;;;;;11.17;3.13;;;10.80;99.90;;;;;;4962152;28;20837;-79
2022/01/03 00:41:39;;;;;;;12.33;2.67;;;10.70;99.90;;;;;;4955466;28;20649;-77
2022/01/03 00:44:09;;;;;;;14.20;2.77;;;10.70;99.90;;;;;;4964506;28;20266;-79
2022/01/03 00:46:36;;;;;;;14.73;2.97;;;10.70;99.90;;;;;;4958313;28;20248;-79
2022/01/03 00:49:06;;;;;;;13.77;2.60;;;10.60;99.90;;;;;;4957774;28;20205;-79
2022/01/03 00:51:35;;;;;;;17.33;2.93;;;10.60;99.90;;;;;;4952940;28;20213;-79
2022/01/03 00:54:02;;;;;;;18.00;3.10;;;10.50;99.90;;;;;;4956818;28;20267;-79
2022/01/03 00:56:35;;;;;;;17.47;3.10;;;10.50;99.90;;;;;;4947122;28;20282;-78
2022/01/03 00:59:10;;;;;;;16.43;2.83;;;10.50;99.90;;;;;;4973525;28;20299;-80
2022/01/03 01:01:39;;;;;;;13.93;2.53;;;10.50;99.90;;;;;;4961676;28;20243;-77
2022/01/03 01:04:08;;;;;;;19.43;3.13;;;10.60;99.90;;;;;;4947275;28;20240;-79
2022/01/03 01:06:37;;;;;;;15.77;2.80;;;10.60;99.90;;;;;;4948452;29;20740;-79
2022/01/03 01:09:08;;;;;;;14.50;3.40;;;10.60;99.90;;;;;;4950533;28;20303;-80
2022/01/03 01:11:39;;;;;;;17.37;2.87;;;10.60;99.90;;;;;;4972699;28;20220;-80
2022/01/03 01:14:06;;;;;;;17.83;2.70;;;10.60;99.90;;;;;;4953755;28;20212;-79
2022/01/03 01:16:34;;;;;;;15.57;2.83;;;10.60;99.90;;;;;;4956069;28;20214;-79
2022/01/03 01:19:03;;;;;;;23.93;3.53;;;10.40;99.90;;;;;;4957119;28;20240;-79
2022/01/03 01:21:31;;;;;;;15.97;3.03;;;10.50;99.90;;;;;;4956254;28;20285;-79
2022/01/03 01:23:58;;;;;;;17.57;2.50;;;10.40;99.90;;;;;;4952819;28;20228;-79
2022/01/03 01:29:13;;;;;;;13.47;2.40;;;10.50;99.90;;;;;;4959812;28;20308;-79
2022/01/03 01:31:50;;;;;;;14.97;2.77;;;10.50;99.90;;;;;;4943780;28;20209;-79
2022/01/03 01:34:22;;;;;;;16.73;2.97;;;10.60;99.90;;;;;;4950411;28;20220;-80
2022/01/03 01:36:56;;;;;;;17.17;2.90;;;10.60;99.90;;;;;;4955475;28;20259;-80
2022/01/03 01:39:25;;;;;;;12.97;3.13;;;10.60;99.90;;;;;;4959714;28;20290;-79
2022/01/03 01:41:55;;;;;;;17.53;3.40;;;10.60;99.90;;;;;;4952291;28;20205;-79
2022/01/03 01:44:24;;;;;;;14.30;2.73;;;10.50;99.90;;;;;;4953980;28;20700;-80
2022/01/03 01:46:56;;;;;;;26.77;3.97;;;10.60;99.90;;;;;;4934708;29;20399;-79
2022/01/03 01:49:28;;;;;;;21.93;3.77;;;10.50;99.90;;;;;;4954342;28;20220;-79
2022/01/03 01:51:59;;;;;;;18.93;3.67;;;10.50;99.90;;;;;;4960466;29;20736;-79
2022/01/03 01:54:29;;;;;;;21.20;3.60;;;10.50;99.90;;;;;;4950485;28;20326;-79
2022/01/03 01:57:06;;;;;;;17.80;3.37;;;10.50;99.90;;;;;;4942258;28;20287;-78
2022/01/03 02:00:08;;;;;;;17.47;3.50;;;10.40;99.90;;;;;;4957179;28;20307;-80
2022/01/03 02:02:57;;;;;;;19.57;3.50;;;10.40;99.90;;;;;;4954450;28;20230;-80
2022/01/03 02:05:42;;;;;;;18.17;3.53;;;10.30;99.90;;;;;;4949338;28;20246;-79
2022/01/03 02:08:14;;;;;;;19.13;3.47;;;10.30;99.90;;;;;;4960945;28;20242;-79
2022/01/03 02:11:07;;;;;;;19.47;3.20;;;10.30;99.90;;;;;;4947487;29;20484;-80
2022/01/03 02:13:36;;;;;;;27.63;3.63;;;10.20;99.90;;;;;;4959885;28;20298;-79
2022/01/03 02:16:03;;;;;;;20.90;3.40;;;10.20;99.90;;;;;;4954791;28;20214;-79
2022/01/03 02:18:32;;;;;;;21.33;3.33;;;10.10;99.90;;;;;;4956735;28;20310;-79
2022/01/03 02:21:01;;;;;;;24.13;3.97;;;10.10;99.90;;;;;;4952313;28;20221;-79
2022/01/03 02:23:28;;;;;;;22.93;3.50;;;10.20;99.90;;;;;;4943807;28;20267;-79
2022/01/03 02:25:55;;;;;;;25.97;3.77;;;10.20;99.90;;;;;;4953271;28;20248;-79
2022/01/03 02:28:22;;;;;;;23.40;3.30;;;10.20;99.90;;;;;;4961618;28;20219;-79
2022/01/03 02:30:51;;;;;;;22.30;4.13;;;10.20;99.90;;;;;;4953439;28;20243;-79
2022/01/03 02:33:18;;;;;;;23.30;4.73;;;10.20;99.90;;;;;;4950634;28;20658;-80
2022/01/03 02:35:45;;;;;;;20.90;4.47;;;10.20;99.90;;;;;;4961934;28;20283;-78
2022/01/03 02:38:13;;;;;;;15.20;3.10;;;10.20;99.90;;;;;;4953061;28;20299;-79
2022/01/03 02:40:40;;;;;;;23.33;4.10;;;10.20;99.90;;;;;;4958047;28;20212;-78
2022/01/03 02:43:07;;;;;;;27.00;5.43;;;10.20;99.90;;;;;;4962043;28;20231;-79
2022/01/03 02:45:33;;;;;;;13.10;2.90;;;10.20;99.90;;;;;;4959326;28;20365;-79
2022/01/03 02:48:04;;;;;;;27.80;3.97;;;10.20;99.90;;;;;;4942788;28;20212;-79
2022/01/03 02:50:32;;;;;;;28.37;3.83;;;10.20;99.90;;;;;;4952703;28;20227;-79
2022/01/03 02:52:59;;;;;;;18.43;3.37;;;10.20;99.90;;;;;;4966173;28;20208;-78
2022/01/03 02:55:27;;;;;;;28.97;4.33;;;10.20;99.90;;;;;;4939029;28;20210;-78
2022/01/03 02:57:58;;;;;;;15.70;3.43;;;10.20;99.90;;;;;;4957524;28;20298;-78
2022/01/03 03:00:28;;;;;;;19.27;3.87;;;10.20;99.90;;;;;;4949735;29;20583;-79
2022/01/03 03:02:55;;;;;;;28.47;4.40;;;10.20;99.90;;;;;;4955838;28;20215;-78
2022/01/03 03:05:23;;;;;;;19.77;4.30;;;10.10;99.90;;;;;;4934980;28;20314;-79
2022/01/03 03:07:51;;;;;;;24.10;4.57;;;10.20;99.90;;;;;;4951468;28;20296;-79
2022/01/03 03:10:20;;;;;;;20.17;3.70;;;10.20;99.90;;;;;;4951856;28;20212;-80
2022/01/03 03:12:48;;;;;;;20.97;3.63;;;10.20;99.90;;;;;;4957160;28;20244;-80
2022/01/03 03:15:16;;;;;;;17.77;3.53;;;10.20;99.90;;;;;;4950236;29;20250;-79
2022/01/03 03:17:45;;;;;;;25.97;5.27;;;10.20;99.90;;;;;;4940293;28;20247;-79
2022/01/03 03:20:14;;;;;;;18.60;4.47;;;10.30;99.90;;;;;;4950660;28;20231;-78
2022/01/03 03:22:41;;;;;;;17.50;4.10;;;10.30;99.90;;;;;;4955989;28;20676;-77
2022/01/03 03:25:14;;;;;;;23.07;3.70;;;10.30;99.90;;;;;;4942138;28;20335;-78
2022/01/03 03:27:46;;;;;;;26.67;4.90;;;10.30;99.90;;;;;;4945278;28;20263;-77
2022/01/03 03:30:19;;;;;;;23.80;4.40;;;10.20;99.90;;;;;;4971363;28;20674;-78
2022/01/03 03:32:48;;;;;;;27.90;4.57;;;10.20;99.90;;;;;;4952736;29;20675;-77
2022/01/03 03:35:16;;;;;;;25.87;4.80;;;10.20;99.90;;;;;;4942034;28;20233;-78
2022/01/03 03:37:43;;;;;;;27.77;4.20;;;10.20;99.90;;;;;;4955036;28;20296;-79
2022/01/03 03:40:11;;;;;;;23.90;3.63;;;10.30;99.90;;;;;;4939586;28;20297;-78
2022/01/03 03:42:39;;;;;;;22.37;3.87;;;10.20;99.90;;;;;;4962114;28;20239;-77
2022/01/03 03:45:07;;;;;;;24.03;3.60;;;10.30;99.90;;;;;;4956729;28;20236;-79
2022/01/03 03:47:34;;;;;;;24.13;4.20;;;10.30;99.90;;;;;;4960219;28;20299;-78
2022/01/03 03:50:06;;;;;;;25.30;4.20;;;10.30;99.90;;;;;;4961080;28;20259;-77
2022/01/03 03:52:33;;;;;;;23.67;3.87;;;10.30;99.90;;;;;;4952722;28;20232;-77
2022/01/03 03:55:00;;;;;;;28.83;3.93;;;10.40;99.90;;;;;;4962472;28;20693;-78
2022/01/03 03:57:27;;;;;;;22.07;3.60;;;10.40;99.90;;;;;;4960904;28;20299;-79
2022/01/03 03:59:55;;;;;;;20.47;3.97;;;10.40;99.90;;;;;;4957762;28;20343;-79
2022/01/03 04:02:22;;;;;;;25.17;3.63;;;10.40;99.90;;;;;;4946632;28;20683;-78
2022/01/03 04:04:49;;;;;;;24.30;4.33;;;10.40;99.90;;;;;;4937002;29;20315;-78
2022/01/03 04:07:16;;;;;;;29.90;4.50;;;10.40;99.90;;;;;;4951343;28;20236;-77
2022/01/03 04:09:43;;;;;;;29.40;5.03;;;10.40;99.90;;;;;;4962844;28;20250;-78
2022/01/03 04:12:10;;;;;;;21.27;4.17;;;10.50;99.90;;;;;;4960915;28;20231;-79
2022/01/03 04:14:36;;;;;;;23.70;4.03;;;10.50;99.90;;;;;;4953511;28;20264;-79
2022/01/03 04:17:06;;;;;;;26.77;4.70;;;10.50;99.90;;;;;;4953707;28;20205;-79
2022/01/03 04:19:33;;;;;;;32.73;4.37;;;10.40;99.90;;;;;;4957664;28;20735;-77
2022/01/03 04:22:00;;;;;;;27.27;5.03;;;10.40;99.90;;;;;;4957959;28;20219;-76
2022/01/03 04:24:27;;;;;;;25.47;4.20;;;10.40;99.90;;;;;;4958331;28;20697;-78
2022/01/03 04:26:54;;;;;;;28.80;5.07;;;10.40;99.90;;;;;;4953123;28;20260;-78
2022/01/03 04:29:21;;;;;;;22.60;4.07;;;10.40;99.90;;;;;;4944143;28;20212;-78
2022/01/03 04:31:48;;;;;;;27.37;5.23;;;10.50;99.90;;;;;;4953117;28;20218;-78
2022/01/03 04:34:15;;;;;;;29.90;5.60;;;10.50;99.90;;;;;;4952669;28;20275;-78
2022/01/03 04:36:42;;;;;;;28.80;3.97;;;10.50;99.90;;;;;;4958248;28;20209;-77
2022/01/03 04:39:08;;;;;;;27.47;5.50;;;10.50;99.90;;;;;;4961363;28;20310;-77
2022/01/03 04:41:35;;;;;;;27.17;4.83;;;10.50;99.90;;;;;;4940555;28;20634;-78
2022/01/03 04:44:05;;;;;;;26.20;4.77;;;10.50;99.90;;;;;;4967285;28;20680;-78
2022/01/03 04:46:36;;;;;;;22.73;3.73;;;10.50;99.90;;;;;;4961114;28;20228;-78
2022/01/03 04:49:05;;;;;;;23.13;4.40;;;10.50;99.90;;;;;;4953820;28;20220;-78
2022/01/03 04:51:33;;;;;;;32.50;4.97;;;10.50;99.90;;;;;;4960762;28;20373;-77
2022/01/03 04:53:59;;;;;;;21.27;3.90;;;10.50;99.90;;;;;;4954473;28;20299;-77
2022/01/03 04:56:29;;;;;;;24.40;4.43;;;10.50;99.90;;;;;;4960834;28;20203;-78
2022/01/03 04:58:56;;;;;;;27.40;4.67;;;10.50;99.90;;;;;;4960711;28;20202;-78
2022/01/03 05:01:23;;;;;;;24.33;4.47;;;10.50;99.90;;;;;;4968033;28;20239;-78
2022/01/03 05:03:52;;;;;;;25.00;4.67;;;10.50;99.90;;;;;;4944565;29;20735;-77
2022/01/03 05:06:19;;;;;;;25.37;4.57;;;10.40;99.90;;;;;;4936923;28;20613;-78
2022/01/03 05:08:46;;;;;;;26.17;4.83;;;10.40;99.90;;;;;;4959030;28;20208;-77
2022/01/03 05:11:14;;;;;;;21.67;5.23;;;10.40;99.90;;;;;;4960714;28;20208;-77
2022/01/03 05:13:41;;;;;;;25.40;4.47;;;10.40;99.90;;;;;;4958325;28;20306;-78
2022/01/03 05:16:09;;;;;;;27.93;4.63;;;10.40;99.90;;;;;;4956825;28;20515;-78
2022/01/03 05:18:36;;;;;;;26.53;4.63;;;10.40;99.90;;;;;;4945177;28;20271;-77
2022/01/03 05:21:06;;;;;;;33.63;5.37;;;10.40;99.90;;;;;;4947383;28;20346;-78
2022/01/03 05:23:33;;;;;;;23.17;4.83;;;10.40;99.90;;;;;;4952678;28;20215;-77
2022/01/03 05:26:00;;;;;;;29.53;5.07;;;10.40;99.90;;;;;;4954522;28;20208;-77
2022/01/03 05:28:26;;;;;;;26.70;4.93;;;10.40;99.90;;;;;;4959915;28;20310;-77
2022/01/03 05:30:55;;;;;;;19.63;4.70;;;10.40;99.90;;;;;;4952974;28;20288;-77
2022/01/03 05:33:22;;;;;;;18.67;3.80;;;10.50;99.90;;;;;;4942911;28;20579;-77
2022/01/03 05:35:49;;;;;;;34.93;4.87;;;10.50;99.90;;;;;;4959646;28;20282;-78
2022/01/03 05:38:16;;;;;;;31.70;5.13;;;10.50;99.90;;;;;;4956901;28;20295;-78
2022/01/03 05:40:42;;;;;;;33.80;4.83;;;10.60;99.90;;;;;;4954687;28;20253;-77
2022/01/03 05:43:10;;;;;;;20.20;3.60;;;10.60;99.90;;;;;;4951589;28;20303;-77
2022/01/03 05:45:37;;;;;;;23.43;3.83;;;10.60;99.90;;;;;;4950515;28;20231;-78
2022/01/03 05:48:05;;;;;;;28.00;3.83;;;10.50;99.90;;;;;;4949353;29;20667;-77
2022/01/03 05:50:32;;;;;;;19.23;6.00;;;10.50;99.90;;;;;;4941966;28;20267;-77
2022/01/03 05:52:59;;;;;;;33.43;6.03;;;10.50;99.90;;;;;;4961416;28;21109;-78
2022/01/03 05:55:26;;;;;;;20.43;3.97;;;10.50;99.90;;;;;;4963576;28;20282;-77
2022/01/03 05:57:52;;;;;;;31.30;4.57;;;10.50;99.90;;;;;;4956155;28;20639;-77
2022/01/03 06:00:20;;;;;;;26.13;4.63;;;10.50;99.90;;;;;;4956001;28;20714;-77
2022/01/03 06:02:52;;;;;;;26.47;4.70;;;10.50;99.90;;;;;;4956866;28;20750;-78
2022/01/03 06:08:06;;;;;;;30.77;5.60;;;10.50;99.90;;;;;;4960347;28;20215;-77
2022/01/03 06:10:33;;;;;;;21.90;4.27;;;10.40;99.90;;;;;;4953792;28;20216;-77
2022/01/03 06:13:00;;;;;;;23.60;4.00;;;10.50;99.90;;;;;;4956386;28;20268;-77
2022/01/03 06:15:27;;;;;;;22.73;4.30;;;10.30;99.90;;;;;;4957716;28;20204;-77
2022/01/03 06:17:54;;;;;;;29.67;4.20;;;10.40;99.90;;;;;;4955454;29;20240;-77
2022/01/03 06:20:21;;;;;;;25.20;4.37;;;10.40;99.90;;;;;;4945509;28;20312;-77
2022/01/03 06:22:48;;;;;;;24.23;3.80;;;10.40;99.90;;;;;;4955725;28;20216;-77
2022/01/03 06:25:15;;;;;;;24.70;4.37;;;10.30;99.90;;;;;;4957766;28;20313;-76
2022/01/03 06:27:42;;;;;;;24.43;4.47;;;10.30;99.90;;;;;;4961257;28;20207;-77
2022/01/03 06:30:10;;;;;;;27.97;5.60;;;10.30;99.90;;;;;;4951512;28;20295;-77
2022/01/03 06:32:36;;;;;;;25.27;4.77;;;10.30;99.90;;;;;;4950062;28;20336;-77
2022/01/03 06:35:05;;;;;;;21.17;4.47;;;10.30;99.90;;;;;;4951695;28;20307;-77
2022/01/03 06:37:32;;;;;;;20.00;4.60;;;10.30;99.90;;;;;;4958791;28;20204;-76
2022/01/03 06:39:59;;;;;;;21.83;4.60;;;10.30;99.90;;;;;;4978022;28;20251;-77
2022/01/03 06:42:26;;;;;;;25.53;5.10;;;10.30;99.90;;;;;;4964894;28;20204;-77
2022/01/03 06:44:55;;;;;;;21.53;4.77;;;10.40;99.90;;;;;;4954667;28;20775;-77
2022/01/03 06:47:22;;;;;;;25.50;4.27;;;10.30;99.90;;;;;;4951833;28;20690;-76
2022/01/03 06:49:49;;;;;;;27.70;4.90;;;10.40;99.90;;;;;;4956367;28;20371;-76
2022/01/03 06:52:16;;;;;;;23.87;4.03;;;10.30;99.90;;;;;;4939204;29;20201;-76
2022/01/03 06:54:43;;;;;;;29.73;4.37;;;10.30;99.90;;;;;;4950606;28;20295;-76
2022/01/03 06:57:11;;;;;;;24.83;4.67;;;10.30;99.90;;;;;;4959248;28;20665;-76
2022/01/03 06:59:38;;;;;;;22.87;3.83;;;10.30;99.90;;;;;;4963220;28;20207;-77
2022/01/03 07:02:05;;;;;;;27.60;5.20;;;10.30;99.90;;;;;;4959028;28;20212;-77
2022/01/03 07:04:32;;;;;;;21.97;3.90;;;10.30;99.90;;;;;;4936735;28;20291;-78
2022/01/03 07:07:06;;;;;;;25.30;4.23;;;10.30;99.90;;;;;;4972703;28;20220;-77
2022/01/03 07:09:33;;;;;;;25.40;6.10;;;10.40;99.90;;;;;;4946707;28;20216;-77
2022/01/03 07:12:00;;;;;;;20.40;4.03;;;10.30;99.90;;;;;;4958087;28;20303;-77
2022/01/03 07:19:51;;;;;;;18.60;4.10;;;10.30;99.90;;;;;;4955490;28;20235;-78
2022/01/03 07:22:18;;;;;;;21.43;4.60;;;10.30;99.90;;;;;;4951754;29;20219;-78
2022/01/03 07:24:46;;;;;;;20.30;3.83;;;10.20;99.90;;;;;;4963180;28;20298;-78
2022/01/03 07:27:13;;;;;;;17.67;3.80;;;10.20;99.90;;;;;;4963086;28;20216;-77
2022/01/03 07:29:41;;;;;;;22.23;4.80;;;10.20;99.90;;;;;;4960189;28;20612;-78
2022/01/03 07:32:09;;;;;;;21.63;4.37;;;10.20;99.90;;;;;;4957204;28;20213;-78
2022/01/03 07:34:36;;;;;;;26.07;4.00;;;10.40;99.90;;;;;;4956962;28;20283;-77
2022/01/03 07:37:06;;;;;;;25.67;4.10;;;10.30;99.90;;;;;;4957814;28;20672;-77
2022/01/03 07:39:34;;;;;;;22.63;4.20;;;10.40;99.90;;;;;;4939703;28;20678;-76
2022/01/03 07:42:02;;;;;;;21.93;4.47;;;10.40;99.90;;;;;;4955816;28;20537;-76
2022/01/03 07:44:29;;;;;;;27.30;4.57;;;10.40;99.90;;;;;;4956271;28;20231;-78
2022/01/03 07:46:57;;;;;;;22.93;4.70;;;10.40;99.90;;;;;;4958495;28;20235;-79
2022/01/03 07:49:24;;;;;;;27.40;4.47;;;10.50;99.90;;;;;;4958270;28;20315;-79
2022/01/03 07:51:51;;;;;;;21.53;4.23;;;10.50;99.90;;;;;;4938665;28;20599;-80
2022/01/03 07:54:18;;;;;;;24.80;4.40;;;10.50;99.90;;;;;;4954764;28;20661;-77
2022/01/03 07:56:45;;;;;;;27.10;4.00;;;10.60;99.90;;;;;;4937664;29;20283;-77
2022/01/03 07:59:15;;;;;;;19.37;4.47;;;10.60;99.90;;;;;;4953848;28;20260;-77
2022/01/03 08:01:46;;;;;;;16.63;3.47;;;10.60;99.90;;;;;;4953876;28;20247;-79
2022/01/03 08:04:13;;;;;;;27.93;4.13;;;10.60;99.90;;;;;;4953662;28;20310;-77
2022/01/03 08:06:45;;;;;;;18.57;4.57;;;10.60;99.90;;;;;;4951850;28;20215;-78
2022/01/03 08:09:12;;;;;;;16.03;3.73;;;10.60;99.90;;;;;;4953413;28;20349;-79
2022/01/03 08:11:39;;;;;;;20.87;4.23;;;10.70;99.90;;;;;;4953170;28;20204;-77
2022/01/03 08:14:06;;;;;;;20.40;3.90;;;10.60;99.90;;;;;;4951665;28;20727;-77
2022/01/03 08:16:34;;;;;;;19.17;4.30;;;10.60;99.90;;;;;;4957166;28;20243;-78
2022/01/03 08:19:01;;;;;;;19.50;4.17;;;10.60;99.90;;;;;;4938470;28;20234;-79
2022/01/03 08:21:29;;;;;;;22.13;4.33;;;10.60;99.90;;;;;;4967677;28;20211;-79
2022/01/03 08:23:56;;;;;;;19.77;4.00;;;10.60;99.90;;;;;;4956191;28;20208;-78
2022/01/03 08:26:23;;;;;;;22.03;4.00;;;10.60;99.90;;;;;;4955214;28;20366;-79
2022/01/03 08:28:50;;;;;;;20.30;3.70;;;10.60;99.90;;;;;;4952339;28;20570;-78
2022/01/03 08:31:17;;;;;;;24.40;4.50;;;10.60;99.90;;;;;;4954155;28;20727;-78
2022/01/03 08:33:44;;;;;;;23.93;4.30;;;10.60;99.90;;;;;;4954252;28;20204;-78
2022/01/03 08:36:11;;;;;;;17.33;3.87;;;10.60;99.90;;;;;;4954827;28;20760;-78
2022/01/03 08:38:38;;;;;;;21.93;4.50;;;10.70;99.90;;;;;;4954149;28;20739;-78
2022/01/03 08:41:06;;;;;;;14.73;3.37;;;10.70;99.90;;;;;;4951655;28;20318;-78
2022/01/03 08:43:33;;;;;;;23.27;4.30;;;10.80;99.90;;;;;;4950546;28;20305;-78
2022/01/03 08:46:00;;;;;;;15.00;3.60;;;10.80;99.90;;;;;;4951982;28;20833;-80
2022/01/03 08:48:28;;;;;;;25.80;4.63;;;10.80;99.90;;;;;;4951181;28;20794;-78
2022/01/03 08:50:55;;;;;;;16.97;3.50;;;10.80;99.90;;;;;;4950549;28;20275;-76
2022/01/03 08:53:26;;;;;;;22.13;3.73;;;10.80;99.90;;;;;;4950752;28;20256;-79
2022/01/03 08:55:57;;;;;;;22.00;4.40;;;10.80;99.90;;;;;;4970712;28;20220;-77
2022/01/03 08:58:25;;;;;;;23.40;4.27;;;10.80;99.90;;;;;;4957609;28;20236;-78
2022/01/03 09:00:52;;;;;;;23.67;4.03;;;10.90;99.90;;;;;;4936346;28;20743;-79
2022/01/03 09:03:20;;;;;;;18.30;3.83;;;10.90;99.90;;;;;;4952518;28;20215;-78
2022/01/03 09:05:49;;;;;;;21.93;3.83;;;10.90;99.90;;;;;;4953317;28;20314;-79
2022/01/03 09:08:17;;;;;;;18.83;4.30;;;11.00;99.90;;;;;;4951598;28;20263;-79
2022/01/03 09:10:45;;;;;;;18.03;3.90;;;11.00;99.90;;;;;;4942230;28;20236;-77
2022/01/03 09:13:12;;;;;;;21.83;5.40;;;11.00;99.90;;;;;;4951198;28;20240;-78
2022/01/03 09:15:40;;;;;;;26.30;4.20;;;11.00;99.90;;;;;;4937834;28;20744;-79
2022/01/03 09:18:10;;;;;;;22.77;4.30;;;10.90;99.90;;;;;;4946241;28;20312;-79
2022/01/03 09:20:37;;;;;;;18.37;3.90;;;10.90;99.90;;;;;;4946115;28;20335;-77
2022/01/03 09:23:15;;;;;;;21.83;5.47;;;11.00;99.90;;;;;;4940386;28;20208;-78
2022/01/03 09:30:55;;;;;;;17.00;3.10;;;10.90;99.90;;;;;;4945132;28;20206;-77
2022/01/03 09:33:22;;;;;;;24.33;3.70;;;11.00;99.90;;;;;;4949343;28;20208;-76
2022/01/03 09:35:51;;;;;;;23.67;3.47;;;10.90;99.90;;;;;;4950363;28;20221;-78
2022/01/03 09:38:18;;;;;;;19.37;3.33;;;10.90;99.90;;;;;;4930168;29;20205;-77
2022/01/03 09:40:47;;;;;;;19.83;3.67;;;10.90;99.90;;;;;;4949235;28;20888;-79
2022/01/03 09:43:17;;;;;;;21.53;4.10;;;10.90;99.90;;;;;;4947394;28;20210;-78
2022/01/03 09:45:47;;;;;;;23.77;4.10;;;11.00;99.90;;;;;;4948010;28;20575;-78
2022/01/03 09:48:15;;;;;;;25.90;4.23;;;10.90;99.90;;;;;;4946814;28;20243;-78
2022/01/03 09:50:44;;;;;;;16.37;3.33;;;10.90;99.90;;;;;;4947558;28;20216;-78
2022/01/03 09:53:12;;;;;;;17.00;3.57;;;11.00;99.90;;;;;;4951183;28;20267;-78
2022/01/03 09:55:42;;;;;;;18.67;3.80;;;11.00;99.90;;;;;;4949585;28;20466;-77
2022/01/03 09:58:10;;;;;;;24.13;4.17;;;11.10;99.90;;;;;;4953309;28;20204;-77
2022/01/03 10:00:38;;;;;;;19.50;3.67;;;11.10;99.90;;;;;;4948127;28;20215;-77
2022/01/03 10:03:05;;;;;;;20.80;4.27;;;11.10;99.90;;;;;;4947608;28;20221;-79
2022/01/03 10:05:33;;;;;;;15.07;4.47;;;11.20;99.90;;;;;;4937209;28;20262;-80
2022/01/03 10:08:01;;;;;;;12.10;3.20;;;11.20;99.90;;;;;;4947690;28;20211;-78
2022/01/03 10:10:34;;;;;;;24.33;4.17;;;11.20;99.90;;;;;;4946501;28;20205;-77
2022/01/03 10:13:02;;;;;;;14.07;4.57;;;11.30;99.90;;;;;;4961551;28;20212;-77
2022/01/03 10:15:32;;;;;;;25.00;5.03;;;11.30;99.90;;;;;;4946663;28;20205;-77
2022/01/03 10:17:59;;;;;;;19.20;3.17;;;11.30;99.90;;;;;;4950508;28;20240;-77
2022/01/03 10:20:29;;;;;;;26.80;3.93;;;11.30;99.90;;;;;;4947755;28;20287;-78
2022/01/03 10:23:10;;;;;;;22.97;4.17;;;11.30;99.90;;;;;;4956861;28;20200;-79
2022/01/03 10:25:37;;;;;;;21.63;4.00;;;11.30;99.90;;;;;;4949429;28;20264;-78
2022/01/03 10:28:05;;;;;;;16.43;4.10;;;11.30;99.90;;;;;;4946879;28;20315;-79
2022/01/03 10:30:40;;;;;;;17.23;4.33;;;11.40;99.90;;;;;;4950982;28;20826;-77
2022/01/03 10:33:13;;;;;;;14.37;3.93;;;11.30;99.90;;;;;;4950823;28;20208;-77
2022/01/03 10:35:46;;;;;;;23.43;4.87;;;11.30;99.90;;;;;;4950311;28;20655;-78
2022/01/03 10:38:36;;;;;;;23.50;4.27;;;11.30;99.90;;;;;;4954807;28;20207;-77
2022/01/03 10:41:14;;;;;;;15.70;4.60;;;11.30;99.90;;;;;;4946123;28;20665;-77
2022/01/03 10:43:47;;;;;;;25.63;4.17;;;11.30;99.90;;;;;;4945152;28;20240;-77
2022/01/03 10:46:21;;;;;;;23.30;4.03;;;11.20;99.90;;;;;;4942353;28;20645;-75
2022/01/03 10:48:51;;;;;;;26.67;4.63;;;11.30;99.90;;;;;;4948417;28;20211;-77
2022/01/03 10:51:26;;;;;;;17.70;4.27;;;11.30;99.90;;;;;;4952215;28;20808;-77
2022/01/03 10:53:55;;;;;;;17.70;3.30;;;11.40;99.90;;;;;;4946995;28;20716;-77
2022/01/03 10:56:38;;;;;;;20.33;4.40;;;11.40;99.90;;;;;;4957724;28;20204;-77
2022/01/03 10:59:14;;;;;;;19.10;4.17;;;11.40;99.90;;;;;;4954369;28;20200;-76
2022/01/03 11:01:53;;;;;;;17.37;3.57;;;11.40;99.90;;;;;;4949021;28;20331;-76
2022/01/03 11:04:46;;;;;;;16.00;3.57;;;11.30;99.90;;;;;;4956200;28;20215;-77
2022/01/03 11:13:06;;;;;;;18.60;4.43;;;11.30;99.90;;;;;;4956180;28;20203;-76
2022/01/03 11:15:33;;;;;;;18.03;3.97;;;11.30;99.90;;;;;;4946011;28;20205;-76
2022/01/03 11:18:13;;;;;;;19.43;4.63;;;11.40;99.90;;;;;;4950935;28;20272;-77
2022/01/03 11:20:41;;;;;;;18.97;3.67;;;11.40;99.90;;;;;;4946035;28;20291;-77
2022/01/03 11:23:08;;;;;;;20.23;4.33;;;11.40;99.90;;;;;;4946989;28;20208;-76
2022/01/03 11:25:38;;;;;;;18.10;4.90;;;11.40;99.90;;;;;;4949216;28;20331;-78
2022/01/03 11:28:05;;;;;;;18.70;4.13;;;11.50;99.90;;;;;;4933253;28;20296;-78
2022/01/03 11:30:33;;;;;;;26.60;5.13;;;11.50;99.90;;;;;;4937950;28;20206;-77
2022/01/03 11:33:04;;;;;;;21.87;3.80;;;11.60;99.90;;;;;;4951217;28;20237;-77
2022/01/03 11:35:32;;;;;;;20.13;4.63;;;11.60;99.90;;;;;;4945346;28;20333;-77
2022/01/03 11:38:00;;;;;;;17.27;4.40;;;11.60;99.90;;;;;;4929464;28;20291;-76
2022/01/03 11:40:28;;;;;;;22.93;4.00;;;11.50;99.90;;;;;;4930644;29;20211;-76
2022/01/03 11:42:55;;;;;;;23.70;3.83;;;11.50;99.90;;;;;;4950855;28;20304;-77
2022/01/03 11:45:22;;;;;;;28.50;4.87;;;11.50;99.90;;;;;;4950146;28;20669;-78
2022/01/03 11:47:51;;;;;;;20.17;3.90;;;11.40;99.90;;;;;;4952339;28;20219;-76
2022/01/03 11:50:18;;;;;;;17.10;4.20;;;11.40;99.90;;;;;;4949233;29;20311;-76
2022/01/03 11:52:45;;;;;;;19.93;3.80;;;11.40;99.90;;;;;;4950829;28;20219;-76
2022/01/03 11:55:14;;;;;;;23.87;4.70;;;11.40;99.90;;;;;;4950257;28;20311;-77
2022/01/03 12:06:25;;;;;;;21.07;4.03;;;11.50;99.90;;;;;;4929256;28;20889;-76
2022/01/03 12:09:01;;;;;;;16.40;4.33;;;11.50;99.90;;;;;;4947630;28;20212;-79
2022/01/03 12:11:29;;;;;;;22.27;3.73;;;11.50;99.90;;;;;;4949172;28;20231;-76
2022/01/03 12:14:05;;;;;;;21.13;3.17;;;11.50;99.90;;;;;;4949544;28;20205;-75
2022/01/03 12:16:42;;;;;;;17.80;4.23;;;11.50;99.90;;;;;;4953713;28;20291;-76
2022/01/03 12:19:27;;;;;;;21.80;4.40;;;11.50;99.90;;;;;;4953640;28;20641;-76
2022/01/03 12:21:59;;;;;;;21.47;4.40;;;11.60;99.90;;;;;;4949300;28;20197;-75
2022/01/03 12:24:26;;;;;;;24.27;3.67;;;11.50;99.90;;;;;;4935530;28;20305;-75
2022/01/03 12:27:09;;;;;;;26.03;4.30;;;11.50;99.90;;;;;;4951161;28;20287;-76
2022/01/03 12:29:55;;;;;;;23.50;3.90;;;11.60;99.90;;;;;;4949592;28;20642;-77
2022/01/03 12:32:37;;;;;;;14.43;3.73;;;11.60;99.90;;;;;;4949236;28;20291;-77
2022/01/03 12:35:20;;;;;;;15.40;3.47;;;11.60;99.90;;;;;;4954260;28;20216;-77
2022/01/03 12:37:52;;;;;;;18.47;3.77;;;11.60;99.90;;;;;;4944940;28;20736;-76
2022/01/03 12:40:27;;;;;;;24.20;4.50;;;11.50;99.90;;;;;;4933451;29;20255;-77
2022/01/03 12:42:59;;;;;;;18.87;4.73;;;11.50;99.90;;;;;;4951644;28;20302;-76
2022/01/03 12:45:29;;;;;;;21.50;3.90;;;11.50;99.90;;;;;;4948697;28;20211;-76
2022/01/03 12:48:11;;;;;;;22.87;5.20;;;11.50;99.90;;;;;;4950513;28;20636;-76
2022/01/03 12:50:52;;;;;;;23.97;3.67;;;11.50;99.90;;;;;;4951289;28;20220;-76
2022/01/03 12:53:28;;;;;;;18.37;3.73;;;11.40;99.90;;;;;;4949473;28;20209;-77
2022/01/03 12:56:02;;;;;;;17.40;3.27;;;11.40;99.90;;;;;;4949907;28;20645;-76
2022/01/03 12:58:29;;;;;;;15.83;3.53;;;11.40;99.90;;;;;;4952036;28;20203;-75
2022/01/03 13:01:14;;;;;;;15.17;3.90;;;11.40;99.90;;;;;;4951888;28;20652;-77
2022/01/03 13:03:43;;;;;;;14.87;3.23;;;11.30;99.90;;;;;;4960920;28;20225;-78
2022/01/03 13:06:15;;;;;;;17.40;3.00;;;11.40;99.90;;;;;;4958556;28;20241;-77
2022/01/03 13:08:51;;;;;;;11.73;3.00;;;11.30;99.90;;;;;;4958436;28;20733;-78
2022/01/03 13:11:21;;;;;;;10.77;3.00;;;11.30;99.90;;;;;;4956542;28;20211;-78
2022/01/03 13:13:56;;;;;;;14.03;2.97;;;11.30;99.90;;;;;;4949591;28;20193;-77
2022/01/03 13:16:33;;;;;;;13.53;3.17;;;11.20;99.90;;;;;;4931801;28;20211;-76
2022/01/03 13:19:06;;;;;;;14.20;3.10;;;11.20;99.90;;;;;;4946782;28;20476;-77